Ridgedale, Missouri
Current Conditions -  °F | °C
As of 6:45 AM on Wednesday 22 Oct 2014 (Local Time) from KBBG Reporting Station
Clear Clear  
Wind Chill: 43°   Ceiling: Unl
Heat Index: 48°   Visibility: 10mi
Dew Point: 46°   Wind: 13mph
Humidity: 93%   Direction: 110°ESE
Pressure: 30.2"   Gusts: NA
Location:  36.5°N, 93.22°W
Report Text: KBBG 221145Z 11011KT 10SM SKC 09/08 A3020
Loading
Personal Weather Stations






























Interactive Weather Map
Tropical Storm Tracking
New forecast layout! Learn more

10-Day Weather Forecast

Advertisements
Track Severe Weather on mobile